Time;durP1;ratioP1;P1;durP2;ratioP2;P2;SDS_P1;SDS_P2;PMS_P1;PMS_P2;Temp;Humidity;BMP_temperature;BMP_pressure;BME280_temperature;BME280_humidity;BME280_pressure;Samples;Min_cycle;Max_cycle;Signal;HPM_P1;HPM_P2
2023/06/04 00:02:35;;;;;;;0.60;0.60;;;;;;;18.06;34.61;101418.41;5166096;28;20041;-84
2023/06/04 00:05:26;;;;;;;0.30;0.30;;;;;;;18.18;33.71;101406.34;5181825;28;20025;-84
2023/06/04 00:08:17;;;;;;;0.40;0.40;;;;;;;18.09;33.71;101412.09;5176173;28;20041;-84
2023/06/04 00:11:08;;;;;;;0.45;0.45;;;;;;;18.08;33.96;101407.69;5186132;28;20041;-84
2023/06/04 00:13:58;;;;;;;1.17;1.15;;;;;;;18.04;34.04;101408.78;5201942;28;20105;-85
2023/06/04 00:16:49;;;;;;;1.08;0.63;;;;;;;17.92;34.20;101402.25;5190429;28;20093;-84
2023/06/04 00:19:40;;;;;;;0.30;0.30;;;;;;;17.88;33.97;101408.63;5189849;28;20021;-84
2023/06/04 00:22:31;;;;;;;2.05;1.45;;;;;;;17.87;34.25;101405.13;5185701;28;20048;-84
2023/06/04 00:25:22;;;;;;;0.30;0.30;;;;;;;17.82;34.15;101406.25;5198634;28;20036;-84
2023/06/04 00:28:13;;;;;;;0.30;0.30;;;;;;;17.86;34.29;101408.69;5185260;28;20034;-84
2023/06/04 00:31:06;;;;;;;0.30;0.30;;;;;;;17.61;34.51;101404.53;5171419;28;20033;-83
2023/06/04 00:33:57;;;;;;;0.20;0.20;;;;;;;17.72;34.40;101397.88;5200371;28;20041;-84
2023/06/04 00:36:48;;;;;;;0.35;0.35;;;;;;;17.51;34.89;101397.06;5200249;28;20034;-83
2023/06/04 00:39:38;;;;;;;0.82;0.77;;;;;;;17.47;34.95;101399.00;5175812;28;20032;-84
2023/06/04 00:42:31;;;;;;;0.20;0.20;;;;;;;17.40;35.47;101397.53;5169208;28;20072;-84
2023/06/04 00:45:25;;;;;;;0.90;0.85;;;;;;;17.33;34.92;101398.72;5184453;28;20032;-85
2023/06/04 00:48:16;;;;;;;2.05;1.42;;;;;;;17.41;35.07;101399.25;5199074;28;20528;-83
2023/06/04 00:51:07;;;;;;;0.25;0.25;;;;;;;17.41;34.72;101399.25;5169197;28;20034;-84
2023/06/04 00:53:59;;;;;;;0.47;0.47;;;;;;;17.35;34.67;101388.94;5177287;28;20029;-84
2023/06/04 00:56:50;;;;;;;0.20;0.20;;;;;;;17.38;34.78;101394.09;5166677;28;20029;-82
2023/06/04 00:59:41;;;;;;;0.55;0.55;;;;;;;17.36;35.33;101390.66;5168492;28;20581;-84
2023/06/04 01:02:33;;;;;;;0.38;0.38;;;;;;;17.37;35.17;101392.38;5179367;28;20030;-84
2023/06/04 01:05:37;;;;;;;0.30;0.30;;;;;;;17.15;35.44;101398.63;5170185;28;20822;-83
2023/06/04 01:08:29;;;;;;;0.65;0.65;;;;;;;16.79;36.48;101405.41;5183633;28;20087;-83
2023/06/04 01:11:34;;;;;;;0.25;0.25;;;;;;;17.03;36.07;101410.63;5185464;28;20195;-85
2023/06/04 01:14:25;;;;;;;26.10;2.45;;;;;;;16.65;36.67;101406.00;5199573;28;20105;-84
2023/06/04 01:17:37;;;;;;;0.98;0.90;;;;;;;16.73;36.61;101410.13;5198859;28;20068;-84
2023/06/04 01:20:34;;;;;;;0.40;0.40;;;;;;;16.77;36.49;101409.94;5184792;28;20492;-84
2023/06/04 01:23:34;;;;;;;0.40;0.40;;;;;;;16.76;36.37;101408.22;5169208;28;20120;-84
2023/06/04 01:26:30;;;;;;;0.30;0.30;;;;;;;16.82;35.99;101407.06;5186755;28;20033;-83
2023/06/04 01:29:23;;;;;;;0.52;0.52;;;;;;;16.66;36.91;101398.91;5182550;28;20041;-84
2023/06/04 01:32:14;;;;;;;0.55;0.52;;;;;;;16.67;36.41;101404.16;5166768;28;20444;-84
2023/06/04 01:35:11;;;;;;;0.38;0.38;;;;;;;16.64;36.09;101401.63;5168991;28;20057;-82
2023/06/04 01:38:02;;;;;;;0.30;0.30;;;;;;;16.51;36.42;101408.34;5185430;28;20508;-84
2023/06/04 01:40:56;;;;;;;0.20;0.20;;;;;;;16.45;37.00;101408.63;5167055;28;20037;-85
2023/06/04 01:43:46;;;;;;;0.73;0.73;;;;;;;16.49;36.75;101404.91;5183864;28;20030;-84
2023/06/04 01:46:37;;;;;;;0.65;0.65;;;;;;;16.51;36.64;101413.66;5167432;28;20038;-84
2023/06/04 01:49:28;;;;;;;0.20;0.20;;;;;;;16.57;36.71;101412.53;5182021;28;20018;-84
2023/06/04 01:52:20;;;;;;;0.43;0.43;;;;;;;16.52;36.84;101405.66;5188701;28;20025;-82
2023/06/04 01:55:14;;;;;;;0.40;0.40;;;;;;;16.18;37.95;101400.84;5209475;28;20029;-83
2023/06/04 01:58:07;;;;;;;0.55;0.55;;;;;;;16.26;37.24;101409.34;5214830;28;20156;-84
2023/06/04 02:01:00;;;;;;;0.20;0.20;;;;;;;16.24;37.35;101405.91;5168723;28;20072;-83
2023/06/04 02:03:50;;;;;;;0.20;0.20;;;;;;;16.18;37.58;101414.97;5199377;28;20037;-84
2023/06/04 02:06:41;;;;;;;0.25;0.25;;;;;;;16.30;37.04;101410.09;5167536;28;20288;-83
2023/06/04 02:09:32;;;;;;;0.30;0.30;;;;;;;16.17;37.33;101415.88;5179193;28;20028;-83
2023/06/04 02:12:22;;;;;;;0.20;0.20;;;;;;;15.90;38.16;101412.53;5167314;28;20489;-84
2023/06/04 02:15:13;;;;;;;0.30;0.30;;;;;;;16.04;38.29;101415.50;5189256;28;20500;-84
2023/06/04 02:18:16;;;;;;;0.95;0.95;;;;;;;16.00;38.50;101410.38;5191321;28;20044;-84
2023/06/04 02:21:07;;;;;;;1.55;0.60;;;;;;;15.63;39.66;101417.91;5201084;28;20032;-85
2023/06/04 02:23:58;;;;;;;0.38;0.38;;;;;;;15.73;38.56;101421.94;5171510;28;20053;-84
2023/06/04 02:26:48;;;;;;;0.30;0.30;;;;;;;15.88;38.65;101419.66;5185833;28;20065;-83
2023/06/04 02:29:40;;;;;;;0.38;0.38;;;;;;;15.93;38.14;101417.69;5198897;28;20124;-83
2023/06/04 02:32:30;;;;;;;0.55;0.55;;;;;;;15.78;38.72;101418.25;5167159;28;20029;-83
2023/06/04 02:35:23;;;;;;;0.20;0.20;;;;;;;15.65;39.34;101431.94;5165754;28;20060;-83
2023/06/04 02:38:13;;;;;;;0.60;0.60;;;;;;;15.35;40.70;101423.34;5172594;28;20071;-84
2023/06/04 02:41:04;;;;;;;0.30;0.30;;;;;;;15.42;40.08;101428.34;5170238;28;20049;-84
2023/06/04 02:43:55;;;;;;;0.40;0.40;;;;;;;15.51;39.63;101426.28;5170474;28;20627;-84
2023/06/04 02:46:46;;;;;;;0.45;0.45;;;;;;;15.62;38.81;101423.28;5200756;28;20588;-84
2023/06/04 02:49:36;;;;;;;0.57;0.57;;;;;;;15.54;39.40;101420.88;5182056;28;20036;-84
2023/06/04 02:52:27;;;;;;;0.20;0.20;;;;;;;15.62;38.67;101424.13;5207661;28;20037;-84
2023/06/04 02:55:21;;;;;;;0.30;0.30;;;;;;;15.55;38.75;101417.34;5180460;28;20036;-83
2023/06/04 02:58:11;;;;;;;0.50;0.50;;;;;;;15.58;38.64;101422.50;5196427;28;20029;-83
2023/06/04 03:01:02;;;;;;;0.85;0.85;;;;;;;15.50;39.02;101419.25;5182406;28;20059;-82
2023/06/04 03:03:53;;;;;;;0.30;0.30;;;;;;;15.54;38.63;101431.47;5194731;28;20121;-83
2023/06/04 03:06:44;;;;;;;0.60;0.60;;;;;;;15.53;39.35;101429.75;5195296;28;20080;-81
2023/06/04 03:09:35;;;;;;;3.30;0.93;;;;;;;15.55;38.42;101425.28;5192495;28;20097;-83
2023/06/04 03:12:26;;;;;;;0.32;0.32;;;;;;;15.54;38.69;101428.81;5196271;28;20583;-84
2023/06/04 03:15:19;;;;;;;0.75;0.75;;;;;;;15.49;38.76;101422.84;5191288;28;20040;-83
2023/06/04 03:18:11;;;;;;;0.20;0.20;;;;;;;15.22;39.47;101430.84;5205569;28;20040;-84
2023/06/04 03:21:02;;;;;;;0.20;0.20;;;;;;;15.32;39.08;101432.25;5215594;28;20048;-83
2023/06/04 03:23:53;;;;;;;0.40;0.40;;;;;;;15.27;38.71;101434.19;5194471;28;20036;-84
2023/06/04 03:26:43;;;;;;;0.40;0.40;;;;;;;15.33;39.49;101428.66;5175178;28;20033;-84
2023/06/04 03:29:35;;;;;;;3.08;0.77;;;;;;;15.26;40.25;101435.09;5189492;28;20489;-85
2023/06/04 03:32:26;;;;;;;0.20;0.20;;;;;;;15.33;39.22;101426.03;5187375;28;20033;-81
2023/06/04 03:35:16;;;;;;;0.60;0.47;;;;;;;15.14;39.52;101427.63;5188972;28;20029;-83
2023/06/04 03:38:07;;;;;;;6.85;0.63;;;;;;;15.17;39.78;101428.38;5171744;28;20034;-84
2023/06/04 03:40:58;;;;;;;0.20;0.20;;;;;;;14.94;40.96;101429.16;5179118;28;20029;-83
2023/06/04 03:43:49;;;;;;;0.20;0.20;;;;;;;15.01;40.54;101435.09;5188937;28;20045;-82
2023/06/04 03:46:40;;;;;;;0.20;0.20;;;;;;;15.01;40.78;101428.03;5171434;28;20044;-84
2023/06/04 03:49:31;;;;;;;1.02;0.93;;;;;;;14.91;40.87;101422.19;5201684;28;20560;-82
2023/06/04 03:52:22;;;;;;;0.55;0.55;;;;;;;14.74;41.64;101429.81;5201719;28;20097;-84
2023/06/04 03:55:13;;;;;;;0.30;0.30;;;;;;;15.00;40.57;101430.72;5189372;28;20053;-84
2023/06/04 03:58:04;;;;;;;0.50;0.50;;;;;;;14.81;41.87;101431.34;5203515;28;20038;-83
2023/06/04 04:00:55;;;;;;;0.25;0.25;;;;;;;14.91;40.43;101431.91;5170658;28;20132;-83
2023/06/04 04:03:49;;;;;;;1.00;0.50;;;;;;;14.63;42.50;101436.28;5201772;28;20034;-83
2023/06/04 04:06:41;;;;;;;0.47;0.47;;;;;;;14.81;41.04;101428.72;5188199;28;20037;-85
2023/06/04 04:09:31;;;;;;;0.38;0.38;;;;;;;14.89;41.38;101434.59;5188660;28;20029;-84
2023/06/04 04:12:22;;;;;;;0.22;0.22;;;;;;;14.84;40.85;101430.38;5203382;28;20687;-84
2023/06/04 04:15:13;;;;;;;0.20;0.20;;;;;;;14.71;41.39;101441.38;5187434;28;20029;-84
2023/06/04 04:18:04;;;;;;;0.85;0.55;;;;;;;14.72;41.56;101431.66;5189143;28;20041;-84
2023/06/04 04:20:55;;;;;;;0.40;0.40;;;;;;;14.82;42.07;101432.22;5176155;28;20057;-84
2023/06/04 04:23:46;;;;;;;1.10;0.68;;;;;;;14.77;42.20;101430.59;5175381;28;20080;-83
2023/06/04 04:26:37;;;;;;;0.75;0.75;;;;;;;14.83;42.90;101434.81;5207572;28;20033;-83
2023/06/04 04:29:32;;;;;;;0.70;0.70;;;;;;;14.77;42.36;101435.88;5174107;28;20104;-83
2023/06/04 04:32:23;;;;;;;0.25;0.25;;;;;;;14.81;42.31;101433.13;5167170;28;20033;-84
2023/06/04 04:35:17;;;;;;;0.47;0.47;;;;;;;14.70;42.87;101438.78;5189206;28;20033;-83
2023/06/04 04:38:09;;;;;;;0.45;0.45;;;;;;;14.70;43.03;101434.34;5203570;28;20038;-83
2023/06/04 04:41:00;;;;;;;0.50;0.50;;;;;;;14.67;42.60;101431.78;5176211;28;20025;-83
2023/06/04 04:43:52;;;;;;;0.60;0.60;;;;;;;14.69;42.73;101432.63;5205222;28;20118;-83
2023/06/04 04:46:43;;;;;;;0.82;0.82;;;;;;;14.77;42.63;101435.03;5198839;28;20090;-83
2023/06/04 04:49:34;;;;;;;0.45;0.45;;;;;;;14.66;45.08;101437.09;5168199;28;20030;-83
2023/06/04 04:52:25;;;;;;;0.30;0.30;;;;;;;14.72;42.86;101431.66;5196992;28;20499;-83
2023/06/04 04:55:15;;;;;;;0.40;0.40;;;;;;;14.74;43.11;101436.00;5191684;28;20037;-83
2023/06/04 04:58:06;;;;;;;0.38;0.38;;;;;;;14.41;45.56;101428.22;5166708;28;20125;-83
2023/06/04 05:00:57;;;;;;;0.30;0.30;;;;;;;14.46;47.00;101436.00;5168218;28;20116;-83
2023/06/04 05:03:48;;;;;;;0.30;0.30;;;;;;;14.66;44.27;101427.47;5199198;28;20033;-83
2023/06/04 05:06:39;;;;;;;0.22;0.22;;;;;;;14.61;44.98;101434.63;5168567;28;20072;-83
2023/06/04 05:09:30;;;;;;;0.20;0.20;;;;;;;14.45;47.18;101435.13;5199939;28;20209;-83
2023/06/04 05:12:21;;;;;;;0.43;0.43;;;;;;;14.63;44.42;101438.94;5180384;28;20075;-83
2023/06/04 05:15:12;;;;;;;0.30;0.30;;;;;;;14.63;46.38;101440.72;5164257;28;20481;-83
2023/06/04 05:18:03;;;;;;;0.20;0.20;;;;;;;14.66;44.71;101443.31;5168336;28;20053;-83
2023/06/04 05:20:59;;;;;;;1.13;0.52;;;;;;;14.71;44.85;101445.81;5164400;28;20029;-85
2023/06/04 05:23:50;;;;;;;0.50;0.50;;;;;;;14.83;46.11;101444.53;5182778;28;20018;-83
2023/06/04 05:26:41;;;;;;;0.45;0.45;;;;;;;14.81;44.66;101441.06;5168270;28;20033;-83
2023/06/04 05:29:31;;;;;;;0.88;0.85;;;;;;;14.82;44.46;101443.66;5169662;28;20048;-83
2023/06/04 05:32:22;;;;;;;0.50;0.50;;;;;;;14.82;45.17;101456.84;5165179;28;20512;-84
2023/06/04 05:35:13;;;;;;;0.30;0.30;;;;;;;14.87;44.23;101451.41;5197483;28;20137;-83
2023/06/04 05:38:04;;;;;;;0.40;0.40;;;;;;;14.91;44.05;101453.06;5179826;28;20041;-83
2023/06/04 05:40:55;;;;;;;0.35;0.35;;;;;;;14.81;45.67;101451.63;5200972;28;21093;-83
2023/06/04 05:43:46;;;;;;;0.47;0.47;;;;;;;14.83;45.08;101455.09;5209668;28;20057;-83
2023/06/04 05:46:37;;;;;;;0.40;0.40;;;;;;;14.88;45.68;101456.63;5167780;28;20120;-83
2023/06/04 05:49:28;;;;;;;0.38;0.38;;;;;;;14.71;46.08;101456.38;5184014;28;20639;-83
2023/06/04 05:52:18;;;;;;;0.40;0.40;;;;;;;14.83;45.44;101460.38;5180001;28;20140;-84
2023/06/04 05:55:10;;;;;;;0.20;0.20;;;;;;;14.92;45.04;101457.41;5170155;28;20640;-83
2023/06/04 05:58:00;;;;;;;0.40;0.40;;;;;;;14.68;46.50;101473.16;5196829;28;20041;-84
2023/06/04 06:00:51;;;;;;;0.32;0.32;;;;;;;14.67;45.66;101470.56;5183676;28;20029;-83
2023/06/04 06:03:45;;;;;;;;;;;;;;;14.83;46.41;101466.50;5142338;28;20084;-83
2023/06/04 06:06:36;;;;;;;0.57;0.57;;;;;;;14.90;44.92;101461.91;5142800;28;19921;-83
2023/06/04 06:09:27;;;;;;;1.15;0.63;;;;;;;14.86;44.66;101462.91;5174173;28;20025;-83
2023/06/04 06:12:18;;;;;;;0.20;0.20;;;;;;;14.93;45.05;101459.13;5172781;28;20087;-84
2023/06/04 06:15:09;;;;;;;0.22;0.22;;;;;;;14.78;45.60;101456.09;5199971;28;20164;-83
2023/06/04 06:18:00;;;;;;;0.40;0.40;;;;;;;14.94;44.70;101463.50;5164393;28;20052;-84
2023/06/04 06:20:51;;;;;;;0.38;0.38;;;;;;;14.98;45.47;101467.78;5194888;28;20650;-82
2023/06/04 06:23:42;;;;;;;0.43;0.43;;;;;;;14.98;44.65;101470.44;5198390;28;20041;-84
2023/06/04 06:26:33;;;;;;;0.20;0.20;;;;;;;15.03;46.13;101476.41;5216748;28;20022;-84
2023/06/04 06:29:24;;;;;;;0.52;0.52;;;;;;;15.08;46.55;101479.75;5201887;28;20029;-83
2023/06/04 06:32:14;;;;;;;0.22;0.22;;;;;;;15.16;44.90;101483.94;5183794;28;20038;-82
2023/06/04 06:35:05;;;;;;;1.65;0.40;;;;;;;15.18;45.14;101488.25;5163234;28;20041;-84
2023/06/04 06:37:59;;;;;;;0.22;0.22;;;;;;;15.28;45.32;101486.16;5184737;28;20052;-84
2023/06/04 06:40:50;;;;;;;0.20;0.20;;;;;;;15.34;45.33;101487.72;5192990;28;20144;-83
2023/06/04 06:43:41;;;;;;;0.20;0.20;;;;;;;15.21;46.44;101488.13;5202432;28;20065;-85
2023/06/04 06:46:34;;;;;;;0.60;0.60;;;;;;;15.20;46.41;101493.47;5208813;28;20318;-84
2023/06/04 06:49:25;;;;;;;;;;;;;;;15.26;46.22;101495.91;5178206;28;20022;-86
2023/06/04 06:52:19;;;;;;;0.57;0.57;;;;;;;15.29;46.19;101493.16;5157475;28;19957;-85
2023/06/04 06:55:10;;;;;;;0.52;0.52;;;;;;;15.40;45.13;101504.25;5148009;28;20030;-86
2023/06/04 06:58:01;;;;;;;0.60;0.60;;;;;;;15.38;46.30;101503.44;5162010;28;20034;-85
2023/06/04 07:00:54;;;;;;;0.32;0.32;;;;;;;15.52;45.04;101502.06;5192122;28;20331;-85
2023/06/04 07:03:45;;;;;;;0.73;0.73;;;;;;;15.68;45.25;101505.03;5181169;28;20049;-85
2023/06/04 07:06:36;;;;;;;1.95;1.23;;;;;;;15.64;45.43;101490.19;5178672;28;20040;-86
2023/06/04 07:09:27;;;;;;;0.50;0.50;;;;;;;15.67;45.45;101496.22;5168472;28;20124;-85
2023/06/04 07:12:18;;;;;;;1.25;0.98;;;;;;;15.63;45.60;101509.63;5169118;28;20168;-87
2023/06/04 07:15:09;;;;;;;0.50;0.50;;;;;;;15.77;46.67;101495.91;5171680;28;20033;-84
2023/06/04 07:17:59;;;;;;;1.08;0.98;;;;;;;15.76;45.50;101502.09;5166344;28;20041;-86
2023/06/04 07:20:52;;;;;;;0.65;0.65;;;;;;;15.93;45.51;101502.38;5185956;28;20112;-85
2023/06/04 07:23:45;;;;;;;1.00;0.80;;;;;;;16.01;44.92;101505.59;5186273;28;20152;-84
2023/06/04 07:26:36;;;;;;;1.33;1.27;;;;;;;16.00;44.82;101497.72;5194813;28;20044;-84
2023/06/04 07:29:27;;;;;;;0.60;0.60;;;;;;;16.12;45.02;101505.19;5153663;28;20034;-84
2023/06/04 07:32:18;;;;;;;0.63;0.63;;;;;;;16.19;44.98;101497.88;5184801;28;20582;-84
2023/06/04 07:35:09;;;;;;;0.30;0.30;;;;;;;16.19;45.35;101488.19;5182514;28;20262;-84
2023/06/04 07:38:00;;;;;;;0.30;0.30;;;;;;;16.24;46.51;101493.28;5174756;28;20081;-85
2023/06/04 07:40:51;;;;;;;0.30;0.30;;;;;;;16.38;44.83;101494.53;5163366;28;20034;-84
2023/06/04 07:43:43;;;;;;;0.43;0.43;;;;;;;16.40;45.38;101493.53;5189629;28;20045;-83
2023/06/04 07:46:33;;;;;;;0.25;0.25;;;;;;;16.44;45.34;101491.63;5176693;28;20037;-84
2023/06/04 07:49:24;;;;;;;0.20;0.20;;;;;;;16.51;45.21;101487.81;5177303;28;20025;-83
2023/06/04 07:52:15;;;;;;;0.45;0.45;;;;;;;16.56;45.04;101488.53;5173932;28;20555;-84
2023/06/04 07:55:06;;;;;;;0.40;0.40;;;;;;;16.72;44.66;101494.03;5206834;28;20021;-84
2023/06/04 07:57:57;;;;;;;0.30;0.30;;;;;;;16.76;44.26;101493.00;5195679;28;20131;-84
2023/06/04 08:00:48;;;;;;;0.30;0.30;;;;;;;16.87;43.80;101495.22;5184760;28;20041;-84
2023/06/04 08:03:40;;;;;;;0.30;0.30;;;;;;;16.97;44.02;101496.59;5191071;28;20116;-83
2023/06/04 08:06:31;;;;;;;0.30;0.30;;;;;;;16.91;43.84;101488.84;5197072;28;20052;-83
2023/06/04 08:09:21;;;;;;;1.38;1.23;;;;;;;17.10;42.36;101490.75;5183219;28;20866;-82
2023/06/04 08:12:12;;;;;;;0.20;0.20;;;;;;;17.09;42.50;101489.03;5190792;28;20471;-84
2023/06/04 08:15:04;;;;;;;0.30;0.30;;;;;;;17.10;44.13;101480.16;5164090;28;20036;-86
2023/06/04 08:17:54;;;;;;;0.40;0.40;;;;;;;17.17;42.20;101484.28;5181275;28;20046;-83
2023/06/04 08:20:45;;;;;;;0.55;0.55;;;;;;;17.37;42.15;101479.91;5191706;28;21905;-84
2023/06/04 08:23:36;;;;;;;1.35;0.57;;;;;;;17.52;41.68;101481.88;5161489;28;20041;-83
2023/06/04 08:26:27;;;;;;;0.60;0.60;;;;;;;17.48;41.63;101480.28;5167648;28;20464;-81
2023/06/04 08:29:18;;;;;;;0.68;0.68;;;;;;;17.50;41.67;101477.56;5169157;28;20071;-83
2023/06/04 08:32:09;;;;;;;0.40;0.40;;;;;;;17.87;40.42;101484.75;5162214;28;20900;-85
2023/06/04 08:35:00;;;;;;;0.40;0.40;;;;;;;17.91;40.17;101488.13;5160805;28;20655;-82
2023/06/04 08:37:51;;;;;;;0.90;0.70;;;;;;;17.95;39.23;101487.03;5181006;28;20037;-83
2023/06/04 08:40:43;;;;;;;0.35;0.35;;;;;;;18.01;39.40;101485.94;5178698;28;20177;-83
2023/06/04 08:43:36;;;;;;;0.20;0.20;;;;;;;18.09;39.22;101481.13;5162861;28;20041;-83
2023/06/04 08:46:28;;;;;;;0.20;0.20;;;;;;;18.04;39.20;101484.00;5178447;28;20297;-84
2023/06/04 08:49:21;;;;;;;0.50;0.40;;;;;;;18.17;39.50;101478.13;5182988;28;20018;-83
2023/06/04 08:52:12;;;;;;;1.80;0.68;;;;;;;18.32;39.71;101487.13;5184744;28;20064;-84
2023/06/04 08:55:04;;;;;;;0.35;0.35;;;;;;;18.24;39.08;101483.06;5168989;28;20121;-84
2023/06/04 08:57:54;;;;;;;0.73;0.73;;;;;;;18.39;39.17;101485.91;5181382;28;20037;-86
2023/06/04 09:00:45;;;;;;;0.52;0.52;;;;;;;18.36;38.43;101472.78;5166023;28;20112;-86
2023/06/04 09:03:37;;;;;;;0.38;0.38;;;;;;;18.61;38.76;101482.22;5162915;28;20033;-87
2023/06/04 09:06:28;;;;;;;0.50;0.50;;;;;;;18.64;37.66;101479.41;5166793;28;20034;-87
2023/06/04 09:09:22;;;;;;;0.22;0.22;;;;;;;18.65;37.50;101482.00;5182882;28;20193;-85
2023/06/04 09:12:21;;;;;;;0.40;0.40;;;;;;;18.77;35.86;101485.84;5183467;28;20038;-86
2023/06/04 09:15:12;;;;;;;0.47;0.47;;;;;;;18.64;36.61;101474.09;5170416;28;20048;-87
2023/06/04 09:18:03;;;;;;;0.40;0.40;;;;;;;18.78;37.56;101484.94;5165734;28;20041;-85
2023/06/04 09:21:09;;;;;;;0.30;0.30;;;;;;;19.03;36.26;101473.94;5175463;28;20032;-86
2023/06/04 09:24:00;;;;;;;0.20;0.20;;;;;;;19.19;36.50;101483.78;5158478;28;20549;-84
2023/06/04 09:26:51;;;;;;;2.13;0.63;;;;;;;19.13;36.62;101479.63;5170360;28;20400;-86
2023/06/04 09:29:56;;;;;;;0.32;0.32;;;;;;;19.27;35.16;101480.75;5162496;28;20021;-86
2023/06/04 09:32:46;;;;;;;0.38;0.38;;;;;;;19.31;36.05;101477.84;5144774;28;20065;-85
2023/06/04 09:35:37;;;;;;;0.20;0.20;;;;;;;19.31;36.39;101482.28;5145758;28;20100;-86
2023/06/04 09:38:35;;;;;;;0.25;0.25;;;;;;;19.41;35.30;101467.56;5146689;28;20129;-86
2023/06/04 09:41:27;;;;;;;0.30;0.30;;;;;;;19.52;35.71;101480.31;5188051;28;20093;-86
2023/06/04 09:44:18;;;;;;;0.30;0.30;;;;;;;19.62;35.18;101480.69;5169835;28;20364;-88
2023/06/04 09:47:08;;;;;;;0.32;0.32;;;;;;;19.71;34.35;101474.84;5159395;28;20095;-91
2023/06/04 09:49:59;;;;;;;0.28;0.28;;;;;;;19.64;34.39;101466.38;5178264;28;20112;-88
2023/06/04 09:52:51;;;;;;;0.20;0.20;;;;;;;19.70;34.81;101475.81;5175419;28;20037;-87
2023/06/04 09:55:42;;;;;;;0.20;0.20;;;;;;;19.79;36.03;101471.78;5146597;28;20038;-88
2023/06/04 09:58:33;;;;;;;0.40;0.40;;;;;;;20.04;34.34;101474.00;5147930;28;20077;-89
2023/06/04 10:01:26;;;;;;;0.20;0.20;;;;;;;20.12;33.69;101478.91;5162401;28;20506;-89
2023/06/04 10:04:17;;;;;;;0.60;0.60;;;;;;;20.06;32.96;101481.94;5180225;28;20412;-88
2023/06/04 10:07:10;;;;;;;0.20;0.20;;;;;;;20.10;33.35;101487.00;5170374;28;20048;-87
2023/06/04 10:10:01;;;;;;;0.80;0.50;;;;;;;20.21;33.79;101488.19;5146015;28;20557;-89
2023/06/04 10:13:15;;;;;;;0.30;0.30;;;;;;;20.20;34.79;101486.50;5144980;28;20465;-89
2023/06/04 10:16:07;;;;;;;0.45;0.45;;;;;;;20.29;34.89;101476.16;5146685;28;20599;-90
2023/06/04 10:18:59;;;;;;;0.20;0.20;;;;;;;20.43;33.89;101472.72;5182312;28;20039;-91
2023/06/04 10:21:50;;;;;;;0.95;0.75;;;;;;;20.50;34.19;101469.72;5174447;28;20061;-89
2023/06/04 10:24:41;;;;;;;0.40;0.40;;;;;;;20.44;33.51;101470.91;5173794;28;20030;-89
2023/06/04 10:27:34;;;;;;;0.50;0.50;;;;;;;20.58;34.09;101475.47;5179238;28;20046;-89
2023/06/04 10:30:25;;;;;;;0.20;0.20;;;;;;;20.51;33.58;101463.44;5174482;28;20057;-89
2023/06/04 10:33:19;;;;;;;0.88;0.73;;;;;;;20.60;32.66;101457.56;5164659;28;20600;-88
2023/06/04 10:36:21;;;;;;;0.30;0.30;;;;;;;20.77;33.14;101463.78;5178046;28;20041;-87
2023/06/04 10:39:12;;;;;;;0.40;0.40;;;;;;;20.74;34.02;101463.00;5179383;28;20025;-87
2023/06/04 10:42:07;;;;;;;0.10;0.10;;;;;;;20.95;32.10;101470.66;5172935;28;20034;-86
2023/06/04 10:44:59;;;;;;;0.30;0.30;;;;;;;20.86;33.83;101455.22;5171662;28;20037;-86
2023/06/04 10:48:00;;;;;;;0.52;0.40;;;;;;;21.13;32.86;101457.19;5164978;28;20038;-86
2023/06/04 10:50:52;;;;;;;0.30;0.30;;;;;;;21.10;33.78;101463.56;5178370;28;20026;-87
2023/06/04 10:53:43;;;;;;;0.22;0.22;;;;;;;21.12;32.72;101463.47;5165533;28;20057;-86
2023/06/04 10:56:35;;;;;;;0.50;0.50;;;;;;;21.07;32.43;101456.63;5160848;28;20702;-86
2023/06/04 10:59:26;;;;;;;0.20;0.20;;;;;;;21.13;33.06;101463.41;5179229;28;20113;-86
2023/06/04 11:02:16;;;;;;;0.28;0.28;;;;;;;21.27;32.78;101451.91;5182657;28;20131;-87
2023/06/04 11:05:09;;;;;;;1.65;0.80;;;;;;;21.32;32.91;101457.81;5162094;28;20044;-87
2023/06/04 11:08:00;;;;;;;0.22;0.22;;;;;;;21.58;32.25;101457.16;5180788;28;20088;-86
2023/06/04 11:10:51;;;;;;;0.22;0.22;;;;;;;21.46;32.65;101456.97;5178702;28;20030;-88
2023/06/04 11:13:43;;;;;;;0.57;0.52;;;;;;;21.55;31.56;101455.53;5172122;28;20038;-87
2023/06/04 11:16:33;;;;;;;0.20;0.20;;;;;;;21.47;33.18;101449.78;5149435;28;20038;-87
2023/06/04 11:19:35;;;;;;;1.75;1.15;;;;;;;21.53;32.07;101446.75;5181091;28;20025;-86
2023/06/04 11:22:26;;;;;;;0.20;0.20;;;;;;;21.51;32.17;101438.00;5165255;28;20030;-85
2023/06/04 11:25:21;;;;;;;0.40;0.40;;;;;;;21.62;31.59;101440.03;5182617;28;20217;-84
2023/06/04 11:28:17;;;;;;;0.50;0.50;;;;;;;21.87;32.01;101447.31;5190765;28;20037;-82
2023/06/04 11:31:08;;;;;;;0.40;0.40;;;;;;;21.68;31.38;101443.16;5201947;28;20058;-83
2023/06/04 11:33:59;;;;;;;1.70;1.17;;;;;;;21.74;31.04;101433.03;5164777;28;20048;-84
2023/06/04 11:36:52;;;;;;;0.30;0.30;;;;;;;21.76;30.98;101428.47;5181477;28;20034;-85
2023/06/04 11:39:44;;;;;;;0.10;0.10;;;;;;;21.84;31.80;101431.50;5174471;28;20051;-85
2023/06/04 11:42:42;;;;;;;0.28;0.28;;;;;;;22.14;30.56;101430.50;5181563;28;20049;-85
2023/06/04 11:45:33;;;;;;;0.30;0.30;;;;;;;22.12;31.59;101427.06;5201474;28;20021;-87
2023/06/04 11:48:24;;;;;;;0.30;0.30;;;;;;;22.25;32.37;101436.00;5200734;28;20034;-86
2023/06/04 11:51:15;;;;;;;0.25;0.25;;;;;;;22.31;31.48;101437.44;5187743;28;20033;-85
2023/06/04 11:54:06;;;;;;;0.20;0.20;;;;;;;22.37;31.24;101437.00;5187516;28;20494;-85
2023/06/04 11:56:57;;;;;;;0.20;0.20;;;;;;;22.41;29.57;101443.03;5164922;28;20782;-86
2023/06/04 11:59:48;;;;;;;0.93;0.77;;;;;;;22.38;29.83;101438.72;5197447;28;20013;-84
2023/06/04 12:02:52;;;;;;;0.22;0.22;;;;;;;22.59;29.36;101436.47;5178690;28;20066;-85
2023/06/04 12:05:42;;;;;;;0.63;0.63;;;;;;;22.59;31.10;101433.81;5163300;28;20161;-86
2023/06/04 12:08:47;;;;;;;0.20;0.20;;;;;;;22.71;29.90;101428.59;5159381;28;20053;-86
2023/06/04 12:11:38;;;;;;;0.70;0.70;;;;;;;22.79;29.24;101428.91;5172450;28;20042;-85
2023/06/04 12:14:29;;;;;;;0.30;0.30;;;;;;;22.92;29.64;101426.25;5164311;28;20092;-86
2023/06/04 12:17:20;;;;;;;0.25;0.25;;;;;;;23.20;29.76;101432.44;5170691;28;20505;-85
2023/06/04 12:20:11;;;;;;;0.32;0.32;;;;;;;23.22;30.20;101420.66;5188227;28;20034;-85
2023/06/04 12:23:07;;;;;;;0.63;0.63;;;;;;;23.30;29.64;101432.66;5170880;28;20034;-85
2023/06/04 12:26:00;;;;;;;0.32;0.32;;;;;;;23.33;29.52;101429.75;5170360;28;20061;-86
2023/06/04 12:29:20;;;;;;;1.05;0.52;;;;;;;23.51;28.76;101427.59;5192793;28;20505;-85
2023/06/04 12:32:15;;;;;;;0.30;0.30;;;;;;;23.45;28.25;101420.84;5162272;28;20398;-86
2023/06/04 12:35:06;;;;;;;0.30;0.30;;;;;;;23.49;28.79;101418.81;5184450;28;20034;-83
2023/06/04 12:38:02;;;;;;;0.32;0.32;;;;;;;23.42;28.74;101413.91;5195939;28;20126;-83
2023/06/04 12:40:53;;;;;;;;;;;;;;;23.57;28.09;101427.16;5184543;28;20112;-84
2023/06/04 12:43:44;;;;;;;0.90;0.90;;;;;;;23.57;28.15;101411.97;5185761;28;19913;-83
2023/06/04 12:46:35;;;;;;;0.25;0.25;;;;;;;23.71;29.12;101416.34;5170802;28;20029;-83
2023/06/04 12:49:26;;;;;;;0.30;0.30;;;;;;;23.94;27.52;101418.31;5171387;28;20532;-87
2023/06/04 12:52:17;;;;;;;1.75;1.27;;;;;;;23.93;29.16;101411.22;5167782;28;20426;-87
2023/06/04 12:55:09;;;;;;;0.25;0.25;;;;;;;24.04;27.97;101414.88;5152068;28;20060;-87
2023/06/04 12:57:59;;;;;;;0.30;0.30;;;;;;;24.01;26.39;101411.53;5182130;28;20105;-88
2023/06/04 13:00:50;;;;;;;0.25;0.25;;;;;;;24.19;27.73;101404.00;5200689;28;20029;-87
2023/06/04 13:03:41;;;;;;;0.35;0.35;;;;;;;24.15;28.00;101406.03;5172468;28;20050;-87
2023/06/04 13:06:34;;;;;;;0.20;0.20;;;;;;;24.08;27.67;101404.78;5173284;28;20057;-86
2023/06/04 13:09:28;;;;;;;0.40;0.40;;;;;;;24.15;27.43;101413.22;5168543;28;20029;-85
2023/06/04 13:12:18;;;;;;;;;;;;;;;24.28;27.33;101406.00;5180118;28;20053;-85
2023/06/04 13:15:09;;;;;;;0.20;0.20;;;;;;;24.23;26.77;101401.94;5185015;28;19920;-84
2023/06/04 13:18:00;;;;;;;1.95;0.93;;;;;;;24.45;26.10;101401.19;5166518;28;20083;-83
2023/06/04 13:20:55;;;;;;;1.60;0.50;;;;;;;24.36;26.60;101408.06;5137162;28;20051;-81
2023/06/04 13:23:46;;;;;;;0.68;0.47;;;;;;;24.49;27.21;101405.34;5135293;28;20043;-81